sensor_id;sensor_type;location;lat;lon;timestamp;P1;durP1;ratioP1;P2;durP2;ratioP2
26435;SDS011;15351;52.408;16.826;2024-01-30T00:00:51;83.30;;;49.00;;
26435;SDS011;15351;52.408;16.826;2024-01-30T00:03:47;95.50;;;50.10;;
26435;SDS011;15351;52.408;16.826;2024-01-30T00:07:20;81.10;;;45.30;;
26435;SDS011;15351;52.408;16.826;2024-01-30T00:16:03;79.30;;;47.10;;
26435;SDS011;15351;52.408;16.826;2024-01-30T00:18:51;80.90;;;47.20;;
26435;SDS011;15351;52.408;16.826;2024-01-30T00:21:42;75.80;;;42.70;;
26435;SDS011;15351;52.408;16.826;2024-01-30T00:24:13;75.00;;;41.30;;
26435;SDS011;15351;52.408;16.826;2024-01-30T00:27:09;78.20;;;39.60;;
26435;SDS011;15351;52.408;16.826;2024-01-30T00:29:51;73.00;;;38.00;;
26435;SDS011;15351;52.408;16.826;2024-01-30T00:32:44;70.00;;;40.30;;
26435;SDS011;15351;52.408;16.826;2024-01-30T00:35:26;71.30;;;41.80;;
26435;SDS011;15351;52.408;16.826;2024-01-30T00:37:57;70.70;;;41.10;;
26435;SDS011;15351;52.408;16.826;2024-01-30T00:40:43;67.20;;;38.70;;
26435;SDS011;15351;52.408;16.826;2024-01-30T00:43:11;71.40;;;37.30;;
26435;SDS011;15351;52.408;16.826;2024-01-30T00:46:02;68.00;;;36.60;;
26435;SDS011;15351;52.408;16.826;2024-01-30T00:48:32;64.00;;;37.50;;
26435;SDS011;15351;52.408;16.826;2024-01-30T00:51:13;65.00;;;39.00;;
26435;SDS011;15351;52.408;16.826;2024-01-30T00:57:06;70.90;;;37.30;;
26435;SDS011;15351;52.408;16.826;2024-01-30T00:59:58;72.90;;;37.20;;
26435;SDS011;15351;52.408;16.826;2024-01-30T01:02:54;61.20;;;36.30;;
26435;SDS011;15351;52.408;16.826;2024-01-30T01:06:28;63.10;;;37.50;;
26435;SDS011;15351;52.408;16.826;2024-01-30T01:09:24;64.90;;;38.60;;
26435;SDS011;15351;52.408;16.826;2024-01-30T01:12:05;65.80;;;37.40;;
26435;SDS011;15351;52.408;16.826;2024-01-30T01:14:55;65.40;;;35.20;;
26435;SDS011;15351;52.408;16.826;2024-01-30T01:20:40;62.10;;;37.20;;
26435;SDS011;15351;52.408;16.826;2024-01-30T01:23:18;63.10;;;37.50;;
26435;SDS011;15351;52.408;16.826;2024-01-30T01:25:45;63.20;;;37.10;;
26435;SDS011;15351;52.408;16.826;2024-01-30T01:28:34;65.80;;;35.60;;
26435;SDS011;15351;52.408;16.826;2024-01-30T01:31:47;68.80;;;35.90;;
26435;SDS011;15351;52.408;16.826;2024-01-30T01:34:14;65.60;;;33.00;;
26435;SDS011;15351;52.408;16.826;2024-01-30T01:36:47;57.20;;;34.90;;
26435;SDS011;15351;52.408;16.826;2024-01-30T01:39:37;59.50;;;34.70;;
26435;SDS011;15351;52.408;16.826;2024-01-30T01:42:04;63.20;;;34.30;;
26435;SDS011;15351;52.408;16.826;2024-01-30T01:44:53;60.40;;;32.20;;
26435;SDS011;15351;52.408;16.826;2024-01-30T01:47:35;61.30;;;33.00;;
26435;SDS011;15351;52.408;16.826;2024-01-30T01:50:21;56.90;;;31.20;;
26435;SDS011;15351;52.408;16.826;2024-01-30T01:52:57;55.70;;;33.40;;
26435;SDS011;15351;52.408;16.826;2024-01-30T01:55:38;56.90;;;34.60;;
26435;SDS011;15351;52.408;16.826;2024-01-30T01:58:32;57.40;;;33.40;;
26435;SDS011;15351;52.408;16.826;2024-01-30T02:00:59;62.70;;;33.00;;
26435;SDS011;15351;52.408;16.826;2024-01-30T02:03:38;60.30;;;32.70;;
26435;SDS011;15351;52.408;16.826;2024-01-30T02:06:15;56.50;;;30.40;;
26435;SDS011;15351;52.408;16.826;2024-01-30T02:08:47;54.80;;;31.90;;
26435;SDS011;15351;52.408;16.826;2024-01-30T02:14:08;53.40;;;32.90;;
26435;SDS011;15351;52.408;16.826;2024-01-30T02:17:04;53.50;;;30.30;;
26435;SDS011;15351;52.408;16.826;2024-01-30T02:20:23;54.90;;;29.70;;
26435;SDS011;15351;52.408;16.826;2024-01-30T02:28:48;48.40;;;30.20;;
26435;SDS011;15351;52.408;16.826;2024-01-30T02:31:15;51.10;;;31.40;;
26435;SDS011;15351;52.408;16.826;2024-01-30T02:33:47;51.90;;;28.70;;
26435;SDS011;15351;52.408;16.826;2024-01-30T02:36:19;58.50;;;30.40;;
26435;SDS011;15351;52.408;16.826;2024-01-30T02:38:46;52.30;;;29.20;;
26435;SDS011;15351;52.408;16.826;2024-01-30T02:41:49;48.90;;;29.50;;
26435;SDS011;15351;52.408;16.826;2024-01-30T02:44:18;47.30;;;29.40;;
26435;SDS011;15351;52.408;16.826;2024-01-30T02:47:05;51.90;;;27.30;;
26435;SDS011;15351;52.408;16.826;2024-01-30T02:49:40;65.30;;;31.10;;
26435;SDS011;15351;52.408;16.826;2024-01-30T02:55:41;45.00;;;28.00;;
26435;SDS011;15351;52.408;16.826;2024-01-30T02:58:24;46.00;;;28.20;;
26435;SDS011;15351;52.408;16.826;2024-01-30T03:04:11;48.10;;;26.30;;
26435;SDS011;15351;52.408;16.826;2024-01-30T03:07:04;46.20;;;24.90;;
26435;SDS011;15351;52.408;16.826;2024-01-30T03:10:09;43.90;;;26.20;;
26435;SDS011;15351;52.408;16.826;2024-01-30T03:12:58;42.30;;;25.50;;
26435;SDS011;15351;52.408;16.826;2024-01-30T03:15:37;47.20;;;27.40;;
26435;SDS011;15351;52.408;16.826;2024-01-30T03:18:04;50.10;;;26.60;;
26435;SDS011;15351;52.408;16.826;2024-01-30T03:20:33;59.20;;;28.60;;
26435;SDS011;15351;52.408;16.826;2024-01-30T03:23:11;55.20;;;27.80;;
26435;SDS011;15351;52.408;16.826;2024-01-30T03:25:42;46.50;;;26.20;;
26435;SDS011;15351;52.408;16.826;2024-01-30T03:28:09;43.70;;;26.40;;
26435;SDS011;15351;52.408;16.826;2024-01-30T03:31:45;45.90;;;26.70;;
26435;SDS011;15351;52.408;16.826;2024-01-30T03:37:18;49.80;;;26.20;;
26435;SDS011;15351;52.408;16.826;2024-01-30T03:40:29;41.30;;;24.90;;
26435;SDS011;15351;52.408;16.826;2024-01-30T03:43:02;39.20;;;24.70;;
26435;SDS011;15351;52.408;16.826;2024-01-30T03:45:42;38.60;;;24.30;;
26435;SDS011;15351;52.408;16.826;2024-01-30T03:48:12;52.60;;;25.60;;
26435;SDS011;15351;52.408;16.826;2024-01-30T03:54:14;46.40;;;25.60;;
26435;SDS011;15351;52.408;16.826;2024-01-30T03:57:11;38.60;;;23.90;;
26435;SDS011;15351;52.408;16.826;2024-01-30T04:00:21;40.00;;;24.20;;
26435;SDS011;15351;52.408;16.826;2024-01-30T04:03:08;40.70;;;22.20;;
26435;SDS011;15351;52.408;16.826;2024-01-30T04:06:06;45.30;;;23.70;;
26435;SDS011;15351;52.408;16.826;2024-01-30T04:08:37;47.00;;;23.70;;
26435;SDS011;15351;52.408;16.826;2024-01-30T04:11:19;37.60;;;22.80;;
26435;SDS011;15351;52.408;16.826;2024-01-30T04:13:57;36.40;;;22.90;;
26435;SDS011;15351;52.408;16.826;2024-01-30T04:16:25;37.60;;;22.70;;
26435;SDS011;15351;52.408;16.826;2024-01-30T04:18:52;52.00;;;25.80;;
26435;SDS011;15351;52.408;16.826;2024-01-30T04:21:39;41.30;;;21.80;;
26435;SDS011;15351;52.408;16.826;2024-01-30T04:24:16;34.40;;;21.20;;
26435;SDS011;15351;52.408;16.826;2024-01-30T04:27:21;40.40;;;22.60;;
26435;SDS011;15351;52.408;16.826;2024-01-30T04:30:02;38.00;;;23.00;;
26435;SDS011;15351;52.408;16.826;2024-01-30T04:32:36;46.60;;;25.20;;
26435;SDS011;15351;52.408;16.826;2024-01-30T04:35:25;55.40;;;26.30;;
26435;SDS011;15351;52.408;16.826;2024-01-30T04:38:03;44.20;;;23.30;;
26435;SDS011;15351;52.408;16.826;2024-01-30T04:40:33;37.00;;;22.70;;
26435;SDS011;15351;52.408;16.826;2024-01-30T04:43:14;37.10;;;23.40;;
26435;SDS011;15351;52.408;16.826;2024-01-30T04:45:52;38.50;;;24.10;;
26435;SDS011;15351;52.408;16.826;2024-01-30T04:48:39;42.30;;;24.40;;
26435;SDS011;15351;52.408;16.826;2024-01-30T04:51:36;49.20;;;26.20;;
26435;SDS011;15351;52.408;16.826;2024-01-30T04:54:27;45.20;;;25.90;;
26435;SDS011;15351;52.408;16.826;2024-01-30T04:57:09;47.00;;;28.60;;
26435;SDS011;15351;52.408;16.826;2024-01-30T04:59:56;48.20;;;28.90;;
26435;SDS011;15351;52.408;16.826;2024-01-30T05:02:59;48.50;;;29.50;;
26435;SDS011;15351;52.408;16.826;2024-01-30T05:05:45;55.20;;;28.40;;
26435;SDS011;15351;52.408;16.826;2024-01-30T05:09:01;52.50;;;28.10;;
26435;SDS011;15351;52.408;16.826;2024-01-30T05:11:39;45.60;;;27.80;;
26435;SDS011;15351;52.408;16.826;2024-01-30T05:14:37;47.60;;;29.20;;
26435;SDS011;15351;52.408;16.826;2024-01-30T05:17:25;47.40;;;29.80;;
26435;SDS011;15351;52.408;16.826;2024-01-30T05:20:28;55.00;;;30.40;;
26435;SDS011;15351;52.408;16.826;2024-01-30T05:23:11;50.30;;;29.20;;
26435;SDS011;15351;52.408;16.826;2024-01-30T05:26:24;48.60;;;29.20;;
26435;SDS011;15351;52.408;16.826;2024-01-30T05:29:34;47.70;;;29.60;;
26435;SDS011;15351;52.408;16.826;2024-01-30T05:32:07;48.40;;;30.60;;
26435;SDS011;15351;52.408;16.826;2024-01-30T05:35:25;66.40;;;32.10;;
26435;SDS011;15351;52.408;16.826;2024-01-30T05:37:54;50.90;;;27.50;;
26435;SDS011;15351;52.408;16.826;2024-01-30T05:40:57;45.50;;;27.10;;
26435;SDS011;15351;52.408;16.826;2024-01-30T05:44:09;46.10;;;28.20;;
26435;SDS011;15351;52.408;16.826;2024-01-30T05:47:20;45.00;;;28.60;;
26435;SDS011;15351;52.408;16.826;2024-01-30T05:49:56;76.10;;;34.80;;
26435;SDS011;15351;52.408;16.826;2024-01-30T05:52:58;50.70;;;26.90;;
26435;SDS011;15351;52.408;16.826;2024-01-30T05:55:41;44.30;;;27.70;;
26435;SDS011;15351;52.408;16.826;2024-01-30T05:58:39;48.20;;;29.20;;
26435;SDS011;15351;52.408;16.826;2024-01-30T06:01:20;48.00;;;29.90;;
26435;SDS011;15351;52.408;16.826;2024-01-30T06:03:52;48.60;;;28.30;;
26435;SDS011;15351;52.408;16.826;2024-01-30T06:06:48;47.30;;;26.70;;
26435;SDS011;15351;52.408;16.826;2024-01-30T06:09:18;47.00;;;27.30;;
26435;SDS011;15351;52.408;16.826;2024-01-30T06:11:54;47.50;;;29.70;;
26435;SDS011;15351;52.408;16.826;2024-01-30T06:14:27;46.00;;;29.20;;
26435;SDS011;15351;52.408;16.826;2024-01-30T06:16:54;45.10;;;29.10;;
26435;SDS011;15351;52.408;16.826;2024-01-30T06:19:24;57.80;;;30.60;;
26435;SDS011;15351;52.408;16.826;2024-01-30T06:22:08;62.00;;;30.40;;
26435;SDS011;15351;52.408;16.826;2024-01-30T06:24:44;54.30;;;28.40;;
26435;SDS011;15351;52.408;16.826;2024-01-30T06:27:35;56.80;;;32.00;;
26435;SDS011;15351;52.408;16.826;2024-01-30T06:30:10;57.60;;;33.10;;
26435;SDS011;15351;52.408;16.826;2024-01-30T06:32:39;60.20;;;34.70;;
26435;SDS011;15351;52.408;16.826;2024-01-30T06:35:15;78.70;;;36.10;;
26435;SDS011;15351;52.408;16.826;2024-01-30T06:37:51;66.40;;;33.50;;
26435;SDS011;15351;52.408;16.826;2024-01-30T06:40:41;73.60;;;37.60;;
26435;SDS011;15351;52.408;16.826;2024-01-30T06:43:53;61.10;;;36.80;;
26435;SDS011;15351;52.408;16.826;2024-01-30T06:46:35;61.20;;;36.70;;
26435;SDS011;15351;52.408;16.826;2024-01-30T06:49:18;61.10;;;34.20;;
26435;SDS011;15351;52.408;16.826;2024-01-30T06:51:49;55.80;;;31.20;;
26435;SDS011;15351;52.408;16.826;2024-01-30T06:54:29;53.90;;;28.80;;
26435;SDS011;15351;52.408;16.826;2024-01-30T06:57:03;53.00;;;29.40;;
26435;SDS011;15351;52.408;16.826;2024-01-30T06:59:45;46.50;;;28.30;;
26435;SDS011;15351;52.408;16.826;2024-01-30T07:02:13;43.90;;;27.40;;
26435;SDS011;15351;52.408;16.826;2024-01-30T07:05:01;50.20;;;27.50;;
26435;SDS011;15351;52.408;16.826;2024-01-30T07:07:51;48.40;;;27.10;;
26435;SDS011;15351;52.408;16.826;2024-01-30T07:10:29;47.90;;;25.60;;
26435;SDS011;15351;52.408;16.826;2024-01-30T07:13:00;48.30;;;28.80;;
26435;SDS011;15351;52.408;16.826;2024-01-30T07:18:48;65.70;;;39.50;;
26435;SDS011;15351;52.408;16.826;2024-01-30T07:21:53;64.30;;;37.20;;
26435;SDS011;15351;52.408;16.826;2024-01-30T07:24:51;59.20;;;34.60;;
26435;SDS011;15351;52.408;16.826;2024-01-30T07:27:51;52.10;;;32.30;;
26435;SDS011;15351;52.408;16.826;2024-01-30T07:30:46;54.20;;;30.80;;
26435;SDS011;15351;52.408;16.826;2024-01-30T07:33:51;50.60;;;28.30;;
26435;SDS011;15351;52.408;16.826;2024-01-30T07:36:56;50.90;;;28.30;;
26435;SDS011;15351;52.408;16.826;2024-01-30T07:40:02;49.90;;;30.00;;
26435;SDS011;15351;52.408;16.826;2024-01-30T07:42:31;49.20;;;30.00;;
26435;SDS011;15351;52.408;16.826;2024-01-30T07:45:47;50.30;;;31.40;;
26435;SDS011;15351;52.408;16.826;2024-01-30T07:50:55;49.60;;;30.50;;
26435;SDS011;15351;52.408;16.826;2024-01-30T07:53:53;51.90;;;31.30;;
26435;SDS011;15351;52.408;16.826;2024-01-30T07:56:23;51.50;;;31.30;;
26435;SDS011;15351;52.408;16.826;2024-01-30T08:02:10;51.20;;;29.60;;
26435;SDS011;15351;52.408;16.826;2024-01-30T08:05:29;47.20;;;29.20;;
26435;SDS011;15351;52.408;16.826;2024-01-30T08:17:49;47.50;;;28.90;;
26435;SDS011;15351;52.408;16.826;2024-01-30T08:21:35;47.60;;;29.60;;
26435;SDS011;15351;52.408;16.826;2024-01-30T08:24:12;47.60;;;30.00;;
26435;SDS011;15351;52.408;16.826;2024-01-30T08:30:46;46.40;;;29.00;;
26435;SDS011;15351;52.408;16.826;2024-01-30T08:34:03;46.90;;;29.70;;
26435;SDS011;15351;52.408;16.826;2024-01-30T08:36:55;46.70;;;29.40;;
26435;SDS011;15351;52.408;16.826;2024-01-30T08:43:09;46.40;;;28.90;;
26435;SDS011;15351;52.408;16.826;2024-01-30T08:46:05;48.00;;;29.90;;
26435;SDS011;15351;52.408;16.826;2024-01-30T08:49:11;46.40;;;29.10;;
26435;SDS011;15351;52.408;16.826;2024-01-30T08:52:04;45.20;;;28.60;;
26435;SDS011;15351;52.408;16.826;2024-01-30T08:55:17;51.00;;;28.70;;
26435;SDS011;15351;52.408;16.826;2024-01-30T08:57:44;52.40;;;27.90;;
26435;SDS011;15351;52.408;16.826;2024-01-30T09:00:19;50.00;;;28.30;;
26435;SDS011;15351;52.408;16.826;2024-01-30T09:03:00;47.60;;;28.50;;
26435;SDS011;15351;52.408;16.826;2024-01-30T09:05:45;47.30;;;28.60;;
26435;SDS011;15351;52.408;16.826;2024-01-30T09:11:14;40.50;;;26.00;;
26435;SDS011;15351;52.408;16.826;2024-01-30T09:13:45;41.30;;;25.80;;
26435;SDS011;15351;52.408;16.826;2024-01-30T09:16:22;41.70;;;25.40;;
26435;SDS011;15351;52.408;16.826;2024-01-30T09:19:10;39.20;;;25.30;;
26435;SDS011;15351;52.408;16.826;2024-01-30T09:22:05;34.00;;;22.00;;
26435;SDS011;15351;52.408;16.826;2024-01-30T09:24:32;30.70;;;20.40;;
26435;SDS011;15351;52.408;16.826;2024-01-30T09:27:43;33.40;;;20.00;;
26435;SDS011;15351;52.408;16.826;2024-01-30T09:30:11;25.70;;;17.30;;
26435;SDS011;15351;52.408;16.826;2024-01-30T09:32:46;24.50;;;16.50;;
26435;SDS011;15351;52.408;16.826;2024-01-30T09:35:27;24.40;;;15.90;;
26435;SDS011;15351;52.408;16.826;2024-01-30T09:38:16;25.30;;;15.60;;
26435;SDS011;15351;52.408;16.826;2024-01-30T09:40:49;24.80;;;15.60;;
26435;SDS011;15351;52.408;16.826;2024-01-30T09:46:46;22.80;;;14.80;;
26435;SDS011;15351;52.408;16.826;2024-01-30T09:52:29;21.10;;;14.70;;
26435;SDS011;15351;52.408;16.826;2024-01-30T09:55:10;22.50;;;14.90;;
26435;SDS011;15351;52.408;16.826;2024-01-30T09:57:47;21.40;;;14.50;;
26435;SDS011;15351;52.408;16.826;2024-01-30T10:00:20;21.80;;;14.60;;
26435;SDS011;15351;52.408;16.826;2024-01-30T10:02:52;22.20;;;14.60;;
26435;SDS011;15351;52.408;16.826;2024-01-30T10:06:03;22.50;;;14.90;;
26435;SDS011;15351;52.408;16.826;2024-01-30T10:09:22;21.60;;;14.40;;
26435;SDS011;15351;52.408;16.826;2024-01-30T10:11:51;22.40;;;14.70;;
26435;SDS011;15351;52.408;16.826;2024-01-30T10:14:26;22.70;;;15.40;;
26435;SDS011;15351;52.408;16.826;2024-01-30T10:17:32;22.50;;;15.20;;
26435;SDS011;15351;52.408;16.826;2024-01-30T10:20:43;24.20;;;15.10;;
26435;SDS011;15351;52.408;16.826;2024-01-30T10:23:32;24.50;;;15.40;;
26435;SDS011;15351;52.408;16.826;2024-01-30T10:26:18;24.00;;;15.50;;
26435;SDS011;15351;52.408;16.826;2024-01-30T10:29:09;24.00;;;15.80;;
26435;SDS011;15351;52.408;16.826;2024-01-30T10:34:58;23.30;;;15.10;;
26435;SDS011;15351;52.408;16.826;2024-01-30T10:37:48;21.70;;;14.40;;
26435;SDS011;15351;52.408;16.826;2024-01-30T10:40:31;23.90;;;16.20;;
26435;SDS011;15351;52.408;16.826;2024-01-30T10:43:23;23.10;;;15.30;;
26435;SDS011;15351;52.408;16.826;2024-01-30T10:46:25;22.80;;;15.30;;
26435;SDS011;15351;52.408;16.826;2024-01-30T10:49:42;21.90;;;14.80;;
26435;SDS011;15351;52.408;16.826;2024-01-30T10:52:16;21.70;;;14.90;;
26435;SDS011;15351;52.408;16.826;2024-01-30T10:57:47;23.10;;;15.30;;
26435;SDS011;15351;52.408;16.826;2024-01-30T11:00:43;23.10;;;15.20;;
26435;SDS011;15351;52.408;16.826;2024-01-30T11:04:00;22.50;;;15.00;;
26435;SDS011;15351;52.408;16.826;2024-01-30T11:14:00;22.80;;;14.70;;
26435;SDS011;15351;52.408;16.826;2024-01-30T11:16:32;23.80;;;15.40;;
26435;SDS011;15351;52.408;16.826;2024-01-30T11:19:00;22.00;;;14.80;;
26435;SDS011;15351;52.408;16.826;2024-01-30T11:22:03;20.70;;;15.00;;
26435;SDS011;15351;52.408;16.826;2024-01-30T11:24:30;25.20;;;15.00;;
26435;SDS011;15351;52.408;16.826;2024-01-30T11:27:07;21.40;;;14.50;;
26435;SDS011;15351;52.408;16.826;2024-01-30T11:29:39;22.10;;;14.70;;
26435;SDS011;15351;52.408;16.826;2024-01-30T11:32:39;21.10;;;14.90;;
26435;SDS011;15351;52.408;16.826;2024-01-30T11:35:22;23.00;;;15.10;;
26435;SDS011;15351;52.408;16.826;2024-01-30T11:37:52;23.10;;;15.20;;
26435;SDS011;15351;52.408;16.826;2024-01-30T11:41:00;21.70;;;15.00;;
26435;SDS011;15351;52.408;16.826;2024-01-30T11:43:38;23.00;;;15.30;;
26435;SDS011;15351;52.408;16.826;2024-01-30T11:49:33;23.10;;;15.40;;
26435;SDS011;15351;52.408;16.826;2024-01-30T11:52:17;23.50;;;15.30;;
26435;SDS011;15351;52.408;16.826;2024-01-30T11:55:04;23.50;;;15.70;;
26435;SDS011;15351;52.408;16.826;2024-01-30T11:57:56;23.90;;;15.10;;
26435;SDS011;15351;52.408;16.826;2024-01-30T12:00:54;24.70;;;15.70;;
26435;SDS011;15351;52.408;16.826;2024-01-30T12:03:22;24.40;;;15.30;;
26435;SDS011;15351;52.408;16.826;2024-01-30T12:06:35;23.40;;;16.10;;
26435;SDS011;15351;52.408;16.826;2024-01-30T12:09:24;23.40;;;15.10;;
26435;SDS011;15351;52.408;16.826;2024-01-30T12:12:45;22.80;;;15.40;;
26435;SDS011;15351;52.408;16.826;2024-01-30T12:15:55;22.10;;;15.30;;
26435;SDS011;15351;52.408;16.826;2024-01-30T12:34:42;24.50;;;15.20;;
26435;SDS011;15351;52.408;16.826;2024-01-30T12:38:03;23.50;;;15.60;;
26435;SDS011;15351;52.408;16.826;2024-01-30T12:41:19;23.30;;;15.20;;
26435;SDS011;15351;52.408;16.826;2024-01-30T12:43:47;20.90;;;15.10;;
26435;SDS011;15351;52.408;16.826;2024-01-30T12:46:17;24.20;;;14.90;;
26435;SDS011;15351;52.408;16.826;2024-01-30T12:52:02;21.70;;;15.60;;
26435;SDS011;15351;52.408;16.826;2024-01-30T12:57:35;22.10;;;15.10;;
26435;SDS011;15351;52.408;16.826;2024-01-30T13:03:36;23.40;;;15.00;;
26435;SDS011;15351;52.408;16.826;2024-01-30T13:06:34;21.80;;;15.20;;
26435;SDS011;15351;52.408;16.826;2024-01-30T13:09:26;21.30;;;14.90;;
26435;SDS011;15351;52.408;16.826;2024-01-30T13:12:13;24.00;;;15.40;;
26435;SDS011;15351;52.408;16.826;2024-01-30T13:14:45;23.00;;;15.60;;
26435;SDS011;15351;52.408;16.826;2024-01-30T13:17:16;23.40;;;15.50;;
26435;SDS011;15351;52.408;16.826;2024-01-30T13:23:12;23.40;;;15.50;;
26435;SDS011;15351;52.408;16.826;2024-01-30T13:25:59;22.00;;;15.10;;
26435;SDS011;15351;52.408;16.826;2024-01-30T13:28:41;21.40;;;14.90;;
26435;SDS011;15351;52.408;16.826;2024-01-30T13:37:16;22.30;;;15.00;;
26435;SDS011;15351;52.408;16.826;2024-01-30T13:39:59;23.40;;;14.40;;
26435;SDS011;15351;52.408;16.826;2024-01-30T13:42:45;24.00;;;15.40;;
26435;SDS011;15351;52.408;16.826;2024-01-30T13:45:16;25.50;;;15.80;;
26435;SDS011;15351;52.408;16.826;2024-01-30T13:47:48;22.50;;;15.10;;
26435;SDS011;15351;52.408;16.826;2024-01-30T13:50:51;22.80;;;15.40;;
26435;SDS011;15351;52.408;16.826;2024-01-30T13:56:02;23.20;;;14.90;;
26435;SDS011;15351;52.408;16.826;2024-01-30T13:58:40;23.20;;;15.10;;
26435;SDS011;15351;52.408;16.826;2024-01-30T14:01:20;24.60;;;15.30;;
26435;SDS011;15351;52.408;16.826;2024-01-30T14:03:58;23.80;;;15.50;;
26435;SDS011;15351;52.408;16.826;2024-01-30T14:12:40;24.10;;;16.00;;
26435;SDS011;15351;52.408;16.826;2024-01-30T14:15:18;24.00;;;16.90;;
26435;SDS011;15351;52.408;16.826;2024-01-30T14:17:45;24.10;;;16.60;;
26435;SDS011;15351;52.408;16.826;2024-01-30T14:20:16;23.60;;;16.50;;
26435;SDS011;15351;52.408;16.826;2024-01-30T14:22:58;24.50;;;17.00;;
26435;SDS011;15351;52.408;16.826;2024-01-30T14:26:02;24.00;;;16.80;;
26435;SDS011;15351;52.408;16.826;2024-01-30T14:28:38;25.10;;;17.60;;
26435;SDS011;15351;52.408;16.826;2024-01-30T14:31:07;25.90;;;17.30;;
26435;SDS011;15351;52.408;16.826;2024-01-30T14:34:31;24.50;;;16.80;;
26435;SDS011;15351;52.408;16.826;2024-01-30T14:40:27;22.70;;;15.30;;
26435;SDS011;15351;52.408;16.826;2024-01-30T14:43:04;21.40;;;15.40;;
26435;SDS011;15351;52.408;16.826;2024-01-30T14:45:42;23.50;;;15.80;;
26435;SDS011;15351;52.408;16.826;2024-01-30T14:51:44;27.30;;;17.70;;
26435;SDS011;15351;52.408;16.826;2024-01-30T14:54:16;27.00;;;17.40;;
26435;SDS011;15351;52.408;16.826;2024-01-30T14:57:03;27.60;;;18.00;;
26435;SDS011;15351;52.408;16.826;2024-01-30T15:03:27;28.20;;;18.30;;
26435;SDS011;15351;52.408;16.826;2024-01-30T15:12:57;30.00;;;18.60;;
26435;SDS011;15351;52.408;16.826;2024-01-30T15:15:33;31.60;;;19.20;;
26435;SDS011;15351;52.408;16.826;2024-01-30T15:18:37;32.70;;;20.50;;
26435;SDS011;15351;52.408;16.826;2024-01-30T15:21:46;31.60;;;19.90;;
26435;SDS011;15351;52.408;16.826;2024-01-30T15:24:45;34.00;;;20.80;;
26435;SDS011;15351;52.408;16.826;2024-01-30T15:27:18;30.70;;;19.70;;
26435;SDS011;15351;52.408;16.826;2024-01-30T15:30:23;30.80;;;20.20;;
26435;SDS011;15351;52.408;16.826;2024-01-30T15:32:49;32.30;;;19.70;;
26435;SDS011;15351;52.408;16.826;2024-01-30T15:35:37;30.70;;;19.40;;
26435;SDS011;15351;52.408;16.826;2024-01-30T15:41:21;29.90;;;19.60;;
26435;SDS011;15351;52.408;16.826;2024-01-30T15:46:46;34.30;;;21.00;;
26435;SDS011;15351;52.408;16.826;2024-01-30T15:55:55;41.50;;;24.60;;
26435;SDS011;15351;52.408;16.826;2024-01-30T15:59:11;42.10;;;25.90;;
26435;SDS011;15351;52.408;16.826;2024-01-30T16:02:02;43.50;;;26.40;;
26435;SDS011;15351;52.408;16.826;2024-01-30T16:04:33;43.60;;;27.20;;
26435;SDS011;15351;52.408;16.826;2024-01-30T16:07:26;44.60;;;27.40;;
26435;SDS011;15351;52.408;16.826;2024-01-30T16:10:03;44.90;;;27.60;;
26435;SDS011;15351;52.408;16.826;2024-01-30T16:12:37;47.30;;;28.90;;
26435;SDS011;15351;52.408;16.826;2024-01-30T16:15:08;45.20;;;27.30;;
26435;SDS011;15351;52.408;16.826;2024-01-30T16:17:46;49.70;;;28.70;;
26435;SDS011;15351;52.408;16.826;2024-01-30T16:20:45;52.20;;;26.80;;
26435;SDS011;15351;52.408;16.826;2024-01-30T16:23:13;47.80;;;28.50;;
26435;SDS011;15351;52.408;16.826;2024-01-30T16:25:51;52.70;;;29.40;;
26435;SDS011;15351;52.408;16.826;2024-01-30T16:28:26;50.80;;;31.20;;
26435;SDS011;15351;52.408;16.826;2024-01-30T16:31:42;61.60;;;39.10;;
26435;SDS011;15351;52.408;16.826;2024-01-30T16:34:17;70.40;;;44.80;;
26435;SDS011;15351;52.408;16.826;2024-01-30T16:36:56;78.80;;;50.60;;
26435;SDS011;15351;52.408;16.826;2024-01-30T16:39:41;88.40;;;54.10;;
26435;SDS011;15351;52.408;16.826;2024-01-30T16:42:22;89.70;;;47.40;;
26435;SDS011;15351;52.408;16.826;2024-01-30T16:45:14;89.10;;;44.90;;
26435;SDS011;15351;52.408;16.826;2024-01-30T16:50:47;78.90;;;44.30;;
26435;SDS011;15351;52.408;16.826;2024-01-30T16:53:31;80.20;;;45.60;;
26435;SDS011;15351;52.408;16.826;2024-01-30T16:56:15;92.00;;;50.00;;
26435;SDS011;15351;52.408;16.826;2024-01-30T16:58:49;100.10;;;54.70;;
26435;SDS011;15351;52.408;16.826;2024-01-30T17:01:18;88.60;;;50.00;;
26435;SDS011;15351;52.408;16.826;2024-01-30T17:03:48;85.60;;;49.60;;
26435;SDS011;15351;52.408;16.826;2024-01-30T17:06:24;85.40;;;43.10;;
26435;SDS011;15351;52.408;16.826;2024-01-30T17:09:04;78.50;;;40.60;;
26435;SDS011;15351;52.408;16.826;2024-01-30T17:11:37;70.90;;;41.90;;
26435;SDS011;15351;52.408;16.826;2024-01-30T17:14:50;68.90;;;41.20;;
26435;SDS011;15351;52.408;16.826;2024-01-30T17:17:34;69.30;;;39.90;;
26435;SDS011;15351;52.408;16.826;2024-01-30T17:20:07;68.30;;;39.80;;
26435;SDS011;15351;52.408;16.826;2024-01-30T17:23:22;67.30;;;40.90;;
26435;SDS011;15351;52.408;16.826;2024-01-30T17:26:10;68.30;;;39.40;;
26435;SDS011;15351;52.408;16.826;2024-01-30T17:28:53;64.60;;;37.90;;
26435;SDS011;15351;52.408;16.826;2024-01-30T17:31:40;66.60;;;39.90;;
26435;SDS011;15351;52.408;16.826;2024-01-30T17:34:12;61.10;;;36.20;;
26435;SDS011;15351;52.408;16.826;2024-01-30T17:36:43;86.80;;;62.30;;
26435;SDS011;15351;52.408;16.826;2024-01-30T17:39:17;52.30;;;28.10;;
26435;SDS011;15351;52.408;16.826;2024-01-30T17:41:55;45.20;;;26.50;;
26435;SDS011;15351;52.408;16.826;2024-01-30T17:44:38;41.20;;;25.30;;
26435;SDS011;15351;52.408;16.826;2024-01-30T17:47:06;41.40;;;26.00;;
26435;SDS011;15351;52.408;16.826;2024-01-30T17:49:33;40.30;;;25.80;;
26435;SDS011;15351;52.408;16.826;2024-01-30T17:52:20;40.80;;;26.10;;
26435;SDS011;15351;52.408;16.826;2024-01-30T17:58:07;39.10;;;23.90;;
26435;SDS011;15351;52.408;16.826;2024-01-30T18:01:00;40.10;;;24.90;;
26435;SDS011;15351;52.408;16.826;2024-01-30T18:03:37;40.20;;;26.10;;
26435;SDS011;15351;52.408;16.826;2024-01-30T18:06:08;55.90;;;35.60;;
26435;SDS011;15351;52.408;16.826;2024-01-30T18:11:42;49.00;;;29.90;;
26435;SDS011;15351;52.408;16.826;2024-01-30T18:14:17;47.10;;;28.60;;
26435;SDS011;15351;52.408;16.826;2024-01-30T18:17:04;42.10;;;27.40;;
26435;SDS011;15351;52.408;16.826;2024-01-30T18:19:48;45.10;;;28.30;;
26435;SDS011;15351;52.408;16.826;2024-01-30T18:22:16;46.40;;;29.70;;
26435;SDS011;15351;52.408;16.826;2024-01-30T18:24:45;46.80;;;29.60;;
26435;SDS011;15351;52.408;16.826;2024-01-30T18:27:34;47.50;;;29.80;;
26435;SDS011;15351;52.408;16.826;2024-01-30T18:32:48;55.20;;;29.00;;
26435;SDS011;15351;52.408;16.826;2024-01-30T18:35:21;50.10;;;32.20;;
26435;SDS011;15351;52.408;16.826;2024-01-30T18:37:57;54.60;;;34.00;;
26435;SDS011;15351;52.408;16.826;2024-01-30T18:40:23;56.10;;;35.20;;